createdAt,value
2018-07-12T00:01:56.966Z,954.03
2018-07-12T00:04:23.296Z,954.02
2018-07-12T00:06:49.651Z,954.03
2018-07-12T00:09:15.965Z,954.00
2018-07-12T00:11:42.286Z,954.04
2018-07-12T00:14:08.599Z,954.07
2018-07-12T00:16:34.915Z,954.02
2018-07-12T00:19:01.237Z,954.03
2018-07-12T00:21:27.546Z,954.07
2018-07-12T00:23:53.856Z,954.06
2018-07-12T00:26:20.224Z,954.08
2018-07-12T00:28:46.537Z,954.09
2018-07-12T00:31:12.854Z,954.09
2018-07-12T00:33:39.220Z,954.08
2018-07-12T00:36:05.497Z,954.12
2018-07-12T00:38:31.808Z,954.11
2018-07-12T00:40:58.124Z,954.12
2018-07-12T00:43:24.437Z,954.06
2018-07-12T00:45:50.811Z,954.05
2018-07-12T00:48:17.116Z,954.08
2018-07-12T00:50:43.454Z,954.12
2018-07-12T00:53:09.787Z,954.06
2018-07-12T00:55:36.105Z,954.15
2018-07-12T00:58:02.423Z,954.12
2018-07-12T01:00:28.732Z,954.09
2018-07-12T01:02:55.058Z,954.10
2018-07-12T01:05:21.373Z,954.04
2018-07-12T01:07:47.693Z,954.03
2018-07-12T01:10:14.006Z,954.01
2018-07-12T01:12:40.322Z,954.04
2018-07-12T01:15:06.637Z,954.05
2018-07-12T01:17:32.945Z,954.07
2018-07-12T01:19:59.261Z,954.07
2018-07-12T01:22:25.583Z,954.08
2018-07-12T01:24:51.932Z,954.08
2018-07-12T01:27:18.239Z,954.06
2018-07-12T01:29:44.549Z,954.07
2018-07-12T01:32:10.886Z,954.04
2018-07-12T01:34:37.188Z,954.06
2018-07-12T01:37:03.544Z,954.04
2018-07-12T01:39:29.858Z,954.07
2018-07-12T01:41:56.184Z,954.10
2018-07-12T01:44:22.497Z,954.03
2018-07-12T01:46:48.815Z,954.06
2018-07-12T01:49:15.130Z,954.06
2018-07-12T01:51:41.446Z,954.04
2018-07-12T01:54:07.773Z,954.05
2018-07-12T01:56:34.076Z,953.99
2018-07-12T01:59:00.393Z,954.04
2018-07-12T02:01:26.712Z,954.08
2018-07-12T02:03:53.027Z,954.09
2018-07-12T02:06:19.379Z,954.09
2018-07-12T02:08:45.754Z,954.00
2018-07-12T02:11:12.032Z,954.01
2018-07-12T02:13:38.346Z,954.05
2018-07-12T02:16:04.668Z,953.99
2018-07-12T02:18:30.985Z,954.03
2018-07-12T02:20:57.299Z,954.04
2018-07-12T02:23:23.612Z,954.04
2018-07-12T02:25:49.926Z,954.14
2018-07-12T02:28:16.242Z,954.06
2018-07-12T02:30:42.561Z,954.08
2018-07-12T02:33:08.921Z,954.09
2018-07-12T02:35:35.237Z,954.09
2018-07-12T02:38:01.553Z,954.11
2018-07-12T02:40:27.871Z,954.10
2018-07-12T02:42:54.180Z,954.06
2018-07-12T02:45:20.495Z,954.13
2018-07-12T02:47:46.805Z,954.13
2018-07-12T02:50:13.120Z,954.09
2018-07-12T02:52:39.430Z,954.16
2018-07-12T02:55:05.750Z,954.16
2018-07-12T02:57:32.068Z,954.14
2018-07-12T02:59:58.378Z,954.09
2018-07-12T03:02:24.694Z,954.15
2018-07-12T03:04:51.051Z,954.14
2018-07-12T03:07:17.323Z,954.13
2018-07-12T03:09:43.644Z,954.17
2018-07-12T03:12:09.960Z,954.09
2018-07-12T03:14:36.280Z,954.13
2018-07-12T03:17:02.595Z,954.09
2018-07-12T03:19:28.914Z,954.12
2018-07-12T03:21:55.241Z,954.07
2018-07-12T03:24:21.580Z,954.11
2018-07-12T03:26:47.896Z,954.08
2018-07-12T03:29:14.215Z,954.15
2018-07-12T03:31:40.536Z,954.12
2018-07-12T03:34:06.852Z,954.11
2018-07-12T03:36:33.172Z,954.17
2018-07-12T03:38:59.530Z,954.19
2018-07-12T03:41:25.832Z,954.16
2018-07-12T03:43:52.149Z,954.21
2018-07-12T03:46:18.467Z,954.16
2018-07-12T03:48:44.780Z,954.20
2018-07-12T03:51:11.088Z,954.23
2018-07-12T03:53:37.403Z,954.15
2018-07-12T03:56:03.732Z,954.13
2018-07-12T03:58:30.042Z,954.22
2018-07-12T04:00:56.357Z,954.23
2018-07-12T04:03:22.672Z,954.23
2018-07-12T04:05:48.988Z,954.25
2018-07-12T04:08:15.296Z,954.20
2018-07-12T04:10:41.615Z,954.24
2018-07-12T04:13:07.932Z,954.30
2018-07-12T04:15:34.244Z,954.37
2018-07-12T04:18:00.568Z,954.31
2018-07-12T04:20:26.884Z,954.33
2018-07-12T04:22:53.196Z,954.36
2018-07-12T04:25:19.510Z,954.35
2018-07-12T04:27:45.831Z,954.35
2018-07-12T04:30:12.146Z,954.35
2018-07-12T04:32:38.460Z,954.34
2018-07-12T04:35:04.774Z,954.30
2018-07-12T04:37:31.094Z,954.37
2018-07-12T04:39:57.407Z,954.40
2018-07-12T04:42:23.722Z,954.33
2018-07-12T04:44:50.033Z,954.43
2018-07-12T04:47:16.345Z,954.38
2018-07-12T04:49:42.670Z,954.40
2018-07-12T04:52:09.001Z,954.44
2018-07-12T04:54:35.319Z,954.48
2018-07-12T04:57:01.639Z,954.49
2018-07-12T04:59:27.958Z,954.50
2018-07-12T05:01:54.273Z,954.47
2018-07-12T05:04:20.580Z,954.49
2018-07-12T05:06:46.908Z,954.48
2018-07-12T05:09:13.312Z,954.50
2018-07-12T05:11:39.626Z,954.49
2018-07-12T05:14:05.945Z,954.49
2018-07-12T05:16:32.296Z,954.39
2018-07-12T05:18:58.617Z,954.38
2018-07-12T05:21:24.942Z,954.46
2018-07-12T05:23:51.301Z,954.45
2018-07-12T05:26:17.632Z,954.47
2018-07-12T05:28:43.950Z,954.46
2018-07-12T05:31:10.280Z,954.52
2018-07-12T05:33:36.623Z,954.54
2018-07-12T05:36:02.928Z,954.57
2018-07-12T05:38:29.344Z,954.59
2018-07-12T05:40:55.587Z,954.58
2018-07-12T05:43:21.915Z,954.57
2018-07-12T05:45:48.240Z,954.63
2018-07-12T05:48:14.558Z,954.71
2018-07-12T05:50:40.916Z,954.59
2018-07-12T05:53:07.238Z,954.62
2018-07-12T05:55:33.560Z,954.62
2018-07-12T05:57:59.928Z,954.64
2018-07-12T06:00:26.246Z,954.60
2018-07-12T06:02:52.617Z,954.63
2018-07-12T06:05:18.975Z,954.64
2018-07-12T06:07:45.288Z,954.55
2018-07-12T06:10:11.646Z,954.54
2018-07-12T06:12:37.976Z,954.60
2018-07-12T06:15:04.280Z,954.58
2018-07-12T06:17:30.652Z,954.65
2018-07-12T06:19:56.969Z,954.57
2018-07-12T06:22:33.698Z,954.63
2018-07-12T06:24:49.660Z,954.69
2018-07-12T06:27:15.980Z,954.67
2018-07-12T06:29:42.335Z,954.63
2018-07-12T06:32:08.657Z,954.70
2018-07-12T06:34:34.971Z,954.66
2018-07-12T06:37:01.302Z,954.71
2018-07-12T06:39:27.693Z,954.67
2018-07-12T06:41:53.979Z,954.70
2018-07-12T06:44:20.301Z,954.69
2018-07-12T06:46:46.609Z,954.62
2018-07-12T06:49:12.943Z,954.64
2018-07-12T06:51:39.266Z,954.53
2018-07-12T06:54:05.582Z,954.59
2018-07-12T06:56:31.906Z,954.58
2018-07-12T06:58:58.232Z,954.57
2018-07-12T07:01:24.593Z,954.56
2018-07-12T07:03:50.922Z,954.49
2018-07-12T07:06:17.246Z,954.55
2018-07-12T07:08:43.562Z,954.54
2018-07-12T07:11:09.867Z,954.52
2018-07-12T07:13:36.189Z,954.54
2018-07-12T07:16:02.500Z,954.50
2018-07-12T07:18:28.817Z,954.45
2018-07-12T07:20:55.332Z,954.46
2018-07-12T07:23:21.491Z,954.45
2018-07-12T07:25:47.805Z,954.49
2018-07-12T07:28:14.160Z,954.42
2018-07-12T07:30:40.473Z,954.42
2018-07-12T07:33:06.784Z,954.45
2018-07-12T07:35:33.158Z,954.46
2018-07-12T07:37:59.412Z,954.45
2018-07-12T07:40:25.735Z,954.45
2018-07-12T07:42:52.131Z,954.43
2018-07-12T07:45:18.434Z,954.38
2018-07-12T07:47:44.742Z,954.39
2018-07-12T07:50:11.051Z,954.42
2018-07-12T07:52:37.408Z,954.41
2018-07-12T07:55:03.732Z,954.42
2018-07-12T07:57:30.045Z,954.45
2018-07-12T07:59:56.365Z,954.46
2018-07-12T08:02:22.688Z,954.42
2018-07-12T08:04:49.007Z,954.39
2018-07-12T08:07:15.328Z,954.38
2018-07-12T08:09:41.698Z,954.33
2018-07-12T08:12:08.009Z,954.40
2018-07-12T08:14:34.320Z,954.41
2018-07-12T08:17:00.648Z,954.39
2018-07-12T08:19:26.969Z,954.36
2018-07-12T08:21:53.280Z,954.33
2018-07-12T08:24:19.589Z,954.33
2018-07-12T08:26:45.932Z,954.32
2018-07-12T08:29:12.290Z,954.29
2018-07-12T08:31:38.599Z,954.30
2018-07-12T08:34:04.922Z,954.28
2018-07-12T08:36:31.235Z,954.30
2018-07-12T08:38:57.604Z,954.36
2018-07-12T08:41:23.854Z,954.30
2018-07-12T08:43:50.183Z,954.26
2018-07-12T08:46:16.564Z,954.29
2018-07-12T08:48:42.812Z,954.21
2018-07-12T08:51:09.128Z,954.21
2018-07-12T08:53:35.438Z,954.21
2018-07-12T08:56:01.752Z,954.23
2018-07-12T08:58:28.063Z,954.26
2018-07-12T09:00:54.372Z,954.25
2018-07-12T09:03:20.700Z,954.27
2018-07-12T09:05:47.004Z,954.28
2018-07-12T09:08:13.363Z,954.21
2018-07-12T09:10:39.677Z,954.22
2018-07-12T09:13:05.991Z,954.15
2018-07-12T09:15:32.309Z,954.18
2018-07-12T09:17:58.639Z,954.21
2018-07-12T09:20:24.988Z,954.16
2018-07-12T09:22:51.301Z,954.19
2018-07-12T09:25:17.667Z,954.16
2018-07-12T09:27:43.972Z,954.18
2018-07-12T09:30:10.324Z,954.19
2018-07-12T09:32:36.637Z,954.14
2018-07-12T09:35:02.958Z,954.11
2018-07-12T09:37:29.276Z,954.03
2018-07-12T09:39:55.588Z,954.04
2018-07-12T09:42:21.896Z,954.02
2018-07-12T09:44:48.223Z,954.04
2018-07-12T09:47:14.543Z,953.96
2018-07-12T09:52:26.176Z,953.90
2018-07-12T09:54:52.521Z,953.91
2018-07-12T09:57:18.839Z,953.84
2018-07-12T09:59:45.156Z,953.82
2018-07-12T10:02:11.510Z,953.83
2018-07-12T10:04:37.845Z,953.86
2018-07-12T10:07:04.284Z,953.79
2018-07-12T10:09:30.575Z,953.79
2018-07-12T10:11:56.917Z,953.79
2018-07-12T10:14:23.273Z,953.79
2018-07-12T10:16:49.585Z,953.78
2018-07-12T10:19:15.946Z,953.77
2018-07-12T10:21:42.268Z,953.77
2018-07-12T10:24:08.594Z,953.73
2018-07-12T10:26:34.915Z,953.78
2018-07-12T10:29:01.267Z,953.78
2018-07-12T10:31:27.592Z,953.75
2018-07-12T10:33:53.900Z,953.70
2018-07-12T10:36:20.230Z,953.73
2018-07-12T10:38:46.546Z,953.70
2018-07-12T10:41:12.856Z,953.61
2018-07-12T10:43:39.283Z,953.63
2018-07-12T10:46:05.672Z,953.62
2018-07-12T10:48:31.985Z,953.58
2018-07-12T10:50:58.300Z,953.55
2018-07-12T10:53:24.640Z,953.60
2018-07-12T10:55:50.969Z,953.58
2018-07-12T10:58:17.313Z,953.54
2018-07-12T11:00:43.619Z,953.58
2018-07-12T11:03:09.978Z,953.58
2018-07-12T11:05:36.384Z,953.56
2018-07-12T11:08:02.693Z,953.53
2018-07-12T11:10:29.085Z,953.49
2018-07-12T11:12:55.347Z,953.42
2018-07-12T11:15:21.667Z,953.39
2018-07-12T11:17:48.004Z,953.43
2018-07-12T11:20:14.323Z,953.38
2018-07-12T11:22:40.638Z,953.37
2018-07-12T11:25:06.948Z,953.33
2018-07-12T11:27:33.267Z,953.30
2018-07-12T11:29:59.606Z,953.31
2018-07-12T11:32:25.936Z,953.27
2018-07-12T11:34:52.284Z,953.24
2018-07-12T11:37:18.593Z,953.28
2018-07-12T11:39:44.907Z,953.21
2018-07-12T11:42:11.223Z,953.14
2018-07-12T11:44:37.637Z,953.22
2018-07-12T11:47:03.901Z,953.15
2018-07-12T11:49:30.256Z,953.14
2018-07-12T11:51:56.576Z,953.12
2018-07-12T11:54:22.909Z,953.15
2018-07-12T11:56:49.235Z,953.17
2018-07-12T11:59:15.584Z,953.12
2018-07-12T12:01:41.940Z,953.14
2018-07-12T12:04:08.208Z,953.17
2018-07-12T12:06:34.520Z,953.20
2018-07-12T12:09:00.837Z,953.16
2018-07-12T12:11:30.263Z,953.05
2018-07-12T12:13:56.598Z,953.05
2018-07-12T12:16:22.932Z,953.12
2018-07-12T12:18:49.235Z,953.06
2018-07-12T12:21:15.552Z,953.07
2018-07-12T12:23:41.910Z,953.13
2018-07-12T12:26:08.234Z,953.09
2018-07-12T12:28:34.542Z,953.04
2018-07-12T12:31:00.919Z,952.95
2018-07-12T12:33:27.251Z,952.95
2018-07-12T12:35:53.588Z,952.94
2018-07-12T12:38:19.895Z,953.01
2018-07-12T12:40:46.203Z,952.96
2018-07-12T12:43:12.521Z,952.95
2018-07-12T12:45:38.866Z,952.91
2018-07-12T12:48:05.149Z,952.82
2018-07-12T12:50:35.116Z,952.88
2018-07-12T12:53:02.556Z,952.88
2018-07-12T12:55:28.857Z,952.86
2018-07-12T12:57:55.177Z,952.81
2018-07-12T13:00:21.500Z,952.91
2018-07-12T13:02:47.826Z,952.85
2018-07-12T13:05:14.136Z,952.78
2018-07-12T13:07:40.453Z,952.87
2018-07-12T13:10:06.766Z,952.89
2018-07-12T13:12:33.119Z,952.95
2018-07-12T13:14:59.513Z,952.98
2018-07-12T13:17:25.877Z,953.02
2018-07-12T13:19:52.247Z,953.02
2018-07-12T13:22:18.508Z,953.05
2018-07-12T13:24:44.819Z,953.04
2018-07-12T13:27:11.142Z,953.11
2018-07-12T13:29:37.453Z,953.15
2018-07-12T13:32:03.766Z,953.14
2018-07-12T13:34:30.126Z,953.23
2018-07-12T13:36:56.460Z,953.17
2018-07-12T13:39:22.787Z,953.25
2018-07-12T13:41:49.107Z,953.23
2018-07-12T13:44:15.430Z,953.15
2018-07-12T13:46:41.784Z,953.17
2018-07-12T13:49:08.064Z,953.19
2018-07-12T13:51:34.446Z,953.20
2018-07-12T13:54:00.793Z,953.16
2018-07-12T13:56:27.129Z,953.19
2018-07-12T13:58:53.446Z,953.12
2018-07-12T14:01:19.782Z,953.18
2018-07-12T14:03:46.095Z,953.15
2018-07-12T14:06:12.415Z,953.16
2018-07-12T14:08:38.725Z,953.15
2018-07-12T14:11:05.037Z,953.08
2018-07-12T14:13:31.363Z,953.13
2018-07-12T14:15:57.687Z,953.09
2018-07-12T14:18:24.003Z,953.13
2018-07-12T14:20:50.316Z,953.15
2018-07-12T14:23:16.819Z,953.09
2018-07-12T14:25:43.129Z,953.13
2018-07-12T14:28:09.582Z,953.15
2018-07-12T14:30:35.906Z,953.13
2018-07-12T14:33:02.220Z,953.12
2018-07-12T14:35:28.532Z,953.13
2018-07-12T14:37:54.845Z,953.03
2018-07-12T14:40:21.789Z,953.11
2018-07-12T14:42:48.093Z,953.03
2018-07-12T14:45:14.402Z,953.08
2018-07-12T14:47:40.732Z,953.01
2018-07-12T14:50:08.012Z,953.02
2018-07-12T14:52:34.334Z,953.04
2018-07-12T14:55:00.667Z,953.01
2018-07-12T14:57:27.079Z,952.96
2018-07-12T14:59:53.319Z,952.98
2018-07-12T15:02:19.646Z,952.95
2018-07-12T15:04:46.383Z,952.91
2018-07-12T15:07:12.735Z,952.92
2018-07-12T15:09:39.053Z,952.90
2018-07-12T15:12:05.387Z,952.83
2018-07-12T15:14:31.748Z,952.88
2018-07-12T15:16:58.064Z,952.86
2018-07-12T15:19:24.447Z,952.86
2018-07-12T15:21:50.849Z,952.91
2018-07-12T15:24:17.118Z,952.84
2018-07-12T15:26:43.432Z,952.88
2018-07-12T15:29:09.783Z,952.91
2018-07-12T15:31:36.123Z,952.82
2018-07-12T15:34:02.422Z,952.80
2018-07-12T15:36:28.732Z,952.85
2018-07-12T15:38:55.056Z,952.78
2018-07-12T15:41:21.412Z,952.80
2018-07-12T15:43:47.729Z,952.83
2018-07-12T15:46:14.036Z,952.82
2018-07-12T15:48:43.539Z,952.81
2018-07-12T15:51:09.828Z,952.81
2018-07-12T15:53:36.143Z,952.83
2018-07-12T15:56:02.459Z,952.85
2018-07-12T15:58:28.775Z,952.77
2018-07-12T16:00:55.107Z,952.75
2018-07-12T16:03:21.429Z,952.84
2018-07-12T16:05:50.601Z,952.81
2018-07-12T16:08:14.626Z,952.76
2018-07-12T16:10:43.857Z,952.79
2018-07-12T16:13:09.524Z,952.82
2018-07-12T16:15:35.925Z,952.84
2018-07-12T16:18:02.267Z,952.81
2018-07-12T16:20:35.279Z,952.85
2018-07-12T16:23:02.118Z,952.83
2018-07-12T16:25:40.976Z,952.88
2018-07-12T16:28:05.929Z,952.86
2018-07-12T16:30:32.244Z,952.84
2018-07-12T16:33:01.618Z,952.96
2018-07-12T16:35:27.932Z,953.03
2018-07-12T16:37:54.253Z,952.96
2018-07-12T16:42:46.893Z,953.00
2018-07-12T16:45:13.218Z,952.92
2018-07-12T16:47:39.539Z,952.97
2018-07-12T16:50:05.881Z,952.88
2018-07-12T16:52:32.248Z,952.94
2018-07-12T16:54:58.534Z,952.94
2018-07-12T16:57:24.843Z,952.99
2018-07-12T16:59:51.162Z,953.01
2018-07-12T17:02:17.475Z,952.98
2018-07-12T17:04:43.795Z,952.94
2018-07-12T17:07:10.183Z,952.93
2018-07-12T17:09:36.455Z,953.01
2018-07-12T17:12:02.780Z,952.97
2018-07-12T17:14:29.101Z,953.06
2018-07-12T17:16:55.416Z,953.04
2018-07-12T17:19:21.723Z,953.06
2018-07-12T17:21:48.039Z,953.15
2018-07-12T17:24:14.354Z,953.15
2018-07-12T17:26:40.802Z,953.14
2018-07-12T17:29:07.117Z,953.15
2018-07-12T17:31:33.424Z,953.18
2018-07-12T17:33:59.764Z,953.11
2018-07-12T17:36:26.076Z,953.18
2018-07-12T17:38:52.396Z,953.19
2018-07-12T17:41:18.715Z,953.17
2018-07-12T17:43:45.030Z,953.22
2018-07-12T17:46:11.342Z,953.13
2018-07-12T17:48:37.656Z,953.16
2018-07-12T17:51:03.978Z,953.19
2018-07-12T17:53:30.318Z,953.20
2018-07-12T17:55:56.653Z,953.24
2018-07-12T17:58:22.965Z,953.20
2018-07-12T18:00:49.298Z,953.25
2018-07-12T18:03:15.707Z,953.26
2018-07-12T18:05:41.987Z,953.31
2018-07-12T18:08:08.312Z,953.31
2018-07-12T18:10:34.639Z,953.31
2018-07-12T18:13:00.993Z,953.36
2018-07-12T18:15:27.330Z,953.38
2018-07-12T18:17:53.652Z,953.39
2018-07-12T18:20:19.966Z,953.40
2018-07-12T18:22:46.324Z,953.35
2018-07-12T18:25:12.643Z,953.37
2018-07-12T18:27:38.963Z,953.41
2018-07-12T18:30:05.324Z,953.44
2018-07-12T18:32:31.696Z,953.42
2018-07-12T18:34:58.012Z,953.45
2018-07-12T18:37:24.350Z,953.46
2018-07-12T18:39:50.671Z,953.51
2018-07-12T18:42:17.000Z,953.51
2018-07-12T18:44:43.309Z,953.50
2018-07-12T18:47:09.679Z,953.54
2018-07-12T18:49:35.991Z,953.57
2018-07-12T18:52:02.356Z,953.61
2018-07-12T18:54:28.670Z,953.69
2018-07-12T18:56:55.038Z,953.71
2018-07-12T18:59:21.362Z,953.72
2018-07-12T19:01:47.702Z,953.79
2018-07-12T19:04:20.264Z,953.82
2018-07-12T19:06:44.043Z,953.81
2018-07-12T19:09:10.363Z,953.86
2018-07-12T19:11:36.696Z,953.82
2018-07-12T19:14:03.015Z,953.89
2018-07-12T19:16:29.334Z,953.90
2018-07-12T19:18:55.655Z,953.91
2018-07-12T19:21:22.010Z,953.92
2018-07-12T19:23:48.379Z,953.91
2018-07-12T19:26:14.680Z,953.93
2018-07-12T19:28:41.077Z,953.96
2018-07-12T19:31:07.405Z,953.92
2018-07-12T19:33:33.815Z,953.87
2018-07-12T19:36:00.048Z,953.89
2018-07-12T19:38:26.368Z,953.88
2018-07-12T19:40:52.695Z,953.92
2018-07-12T19:43:19.030Z,953.90
2018-07-12T19:45:45.355Z,953.83
2018-07-12T19:48:11.686Z,953.90
2018-07-12T19:50:38.039Z,954.01
2018-07-12T19:53:04.435Z,954.02
2018-07-12T19:55:30.751Z,954.01
2018-07-12T19:57:57.072Z,954.04
2018-07-12T20:00:23.424Z,954.08
2018-07-12T20:02:49.731Z,954.02
2018-07-12T20:05:16.054Z,954.08
2018-07-12T20:07:42.365Z,954.10
2018-07-12T20:10:08.686Z,954.14
2018-07-12T20:12:35.021Z,954.22
2018-07-12T20:15:01.415Z,954.18
2018-07-12T20:17:27.765Z,954.27
2018-07-12T20:19:54.265Z,954.27
2018-07-12T20:22:20.832Z,954.28
2018-07-12T20:24:56.268Z,954.25
2018-07-12T20:27:22.648Z,954.25
2018-07-12T20:29:53.404Z,954.20
2018-07-12T20:32:18.724Z,954.30
2018-07-12T20:34:45.142Z,954.31
2018-07-12T20:37:11.513Z,954.27
2018-07-12T20:39:37.887Z,954.24
2018-07-12T20:42:04.437Z,954.23
2018-07-12T20:44:30.924Z,954.19
2018-07-12T20:46:57.182Z,954.23
2018-07-12T20:49:23.561Z,954.30
2018-07-12T20:51:49.955Z,954.27
2018-07-12T20:54:16.298Z,954.31
2018-07-12T20:56:42.606Z,954.32
2018-07-12T20:59:08.978Z,954.37
2018-07-12T21:01:35.289Z,954.38
2018-07-12T21:04:09.324Z,954.38
2018-07-12T21:06:37.031Z,954.43
2018-07-12T21:09:03.344Z,954.37
2018-07-12T21:11:29.661Z,954.39
2018-07-12T21:13:55.974Z,954.40
2018-07-12T21:16:22.289Z,954.44
2018-07-12T21:18:48.611Z,954.38
2018-07-12T21:21:14.934Z,954.38
2018-07-12T21:23:41.329Z,954.39
2018-07-12T21:26:07.590Z,954.50
2018-07-12T21:28:33.908Z,954.53
2018-07-12T21:31:00.235Z,954.53
2018-07-12T21:33:26.657Z,954.50
2018-07-12T21:35:52.881Z,954.46
2018-07-12T21:38:19.197Z,954.50
2018-07-12T21:40:45.513Z,954.47
2018-07-12T21:43:11.867Z,954.47
2018-07-12T21:45:38.180Z,954.49
2018-07-12T21:48:04.501Z,954.52
2018-07-12T21:50:30.814Z,954.45
2018-07-12T21:52:57.164Z,954.50
2018-07-12T21:55:23.507Z,954.52
2018-07-12T21:57:49.975Z,954.52
2018-07-12T22:00:16.297Z,954.50
2018-07-12T22:02:42.643Z,954.51
2018-07-12T22:05:08.925Z,954.49
2018-07-12T22:07:35.260Z,954.48
2018-07-12T22:10:01.585Z,954.41
2018-07-12T22:12:27.921Z,954.41
2018-07-12T22:14:54.278Z,954.43
2018-07-12T22:17:20.606Z,954.42
2018-07-12T22:19:46.921Z,954.47
2018-07-12T22:22:13.245Z,954.43
2018-07-12T22:24:39.557Z,954.41
2018-07-12T22:27:05.884Z,954.44
2018-07-12T22:29:32.201Z,954.47
2018-07-12T22:31:58.514Z,954.46
2018-07-12T22:34:24.835Z,954.45
2018-07-12T22:36:51.153Z,954.46
2018-07-12T22:39:17.476Z,954.44
2018-07-12T22:41:43.864Z,954.50
2018-07-12T22:44:10.148Z,954.47
2018-07-12T22:46:36.484Z,954.51
2018-07-12T22:49:02.935Z,954.53
2018-07-12T22:51:29.141Z,954.54
2018-07-12T22:53:55.451Z,954.50
2018-07-12T22:56:21.762Z,954.61
2018-07-12T22:58:48.087Z,954.59
2018-07-12T23:01:14.403Z,954.55
2018-07-12T23:03:40.722Z,954.58
2018-07-12T23:06:07.044Z,954.59
2018-07-12T23:08:33.369Z,954.52
2018-07-12T23:10:59.681Z,954.52
2018-07-12T23:13:25.987Z,954.46
2018-07-12T23:15:52.309Z,954.53
2018-07-12T23:18:18.626Z,954.48
2018-07-12T23:20:44.938Z,954.50
2018-07-12T23:23:11.265Z,954.43
2018-07-12T23:25:37.659Z,954.41
2018-07-12T23:28:03.911Z,954.49
2018-07-12T23:30:30.247Z,954.48
2018-07-12T23:32:56.575Z,954.48
2018-07-12T23:35:22.937Z,954.52
2018-07-12T23:37:49.316Z,954.55
2018-07-12T23:40:15.640Z,954.51
2018-07-12T23:42:41.959Z,954.48
2018-07-12T23:45:08.271Z,954.47
2018-07-12T23:47:34.630Z,954.39
2018-07-12T23:50:00.958Z,954.39
2018-07-12T23:52:27.264Z,954.39
2018-07-12T23:54:53.576Z,954.43
2018-07-12T23:57:19.910Z,954.43
2018-07-12T23:59:46.218Z,954.46
